createdAt,value
2023-03-06T00:00:33.172Z,85.75
2023-03-06T00:02:59.907Z,95.75
2023-03-06T00:05:26.851Z,89.00
2023-03-06T00:07:53.533Z,82.50
2023-03-06T00:10:23.926Z,84.00
2023-03-06T00:12:55.923Z,87.25
2023-03-06T00:15:24.269Z,91.50
2023-03-06T00:17:50.949Z,84.25
2023-03-06T00:20:18.678Z,85.75
2023-03-06T00:22:45.966Z,81.50
2023-03-06T00:25:15.330Z,88.50
2023-03-06T00:27:42.315Z,84.25
2023-03-06T00:30:12.658Z,81.50
2023-03-06T00:32:39.432Z,81.75
2023-03-06T00:35:06.541Z,80.75
2023-03-06T00:37:33.178Z,86.25
2023-03-06T00:39:59.955Z,84.00
2023-03-06T00:42:26.563Z,83.75
2023-03-06T00:44:53.396Z,80.00
2023-03-06T00:47:19.978Z,84.00
2023-03-06T00:49:47.009Z,79.50
2023-03-06T00:52:14.131Z,76.25
2023-03-06T00:54:41.206Z,80.25
2023-03-06T00:57:07.970Z,83.75
2023-03-06T00:59:34.986Z,79.00
2023-03-06T01:02:02.290Z,80.25
2023-03-06T01:04:29.016Z,71.75
2023-03-06T01:06:55.675Z,76.50
2023-03-06T01:09:22.266Z,80.75
2023-03-06T01:11:48.878Z,80.25
2023-03-06T01:14:15.512Z,82.50
2023-03-06T01:16:42.148Z,79.75
2023-03-06T01:19:08.739Z,75.75
2023-03-06T01:21:35.321Z,74.50
2023-03-06T01:24:01.943Z,81.75
2023-03-06T01:26:28.666Z,84.25
2023-03-06T01:28:57.457Z,81.00
2023-03-06T01:31:25.661Z,80.00
2023-03-06T01:33:52.986Z,79.75
2023-03-06T01:36:19.592Z,78.00
2023-03-06T01:38:46.218Z,83.50
2023-03-06T01:41:15.839Z,79.00
2023-03-06T01:43:45.163Z,81.00
2023-03-06T01:46:33.375Z,81.50
2023-03-06T01:49:15.179Z,84.50
2023-03-06T01:51:48.046Z,81.25
2023-03-06T01:54:44.773Z,81.25
2023-03-06T01:57:19.166Z,84.00
2023-03-06T01:59:49.538Z,81.00
2023-03-06T02:02:16.558Z,83.25
2023-03-06T02:04:44.249Z,81.75
2023-03-06T02:07:11.752Z,78.50
2023-03-06T02:09:39.077Z,82.75
2023-03-06T02:12:13.085Z,83.75
2023-03-06T02:14:41.649Z,80.25
2023-03-06T02:17:10.876Z,80.50
2023-03-06T02:19:47.091Z,78.25
2023-03-06T02:22:13.750Z,77.25
2023-03-06T02:24:54.075Z,79.25
2023-03-06T02:27:21.050Z,70.75
2023-03-06T02:29:47.601Z,72.50
2023-03-06T02:32:14.192Z,75.25
2023-03-06T02:34:40.745Z,73.00
2023-03-06T02:37:09.561Z,70.75
2023-03-06T02:39:42.365Z,69.00
2023-03-06T02:42:08.940Z,71.50
2023-03-06T02:44:36.725Z,74.75
2023-03-06T02:47:03.339Z,68.75
2023-03-06T02:49:29.880Z,69.25
2023-03-06T02:51:56.468Z,71.25
2023-03-06T02:54:23.052Z,69.75
2023-03-06T02:56:49.614Z,72.50
2023-03-06T02:59:16.191Z,68.25
2023-03-06T03:01:42.854Z,67.50
2023-03-06T03:04:10.886Z,63.50
2023-03-06T03:06:37.529Z,66.00
2023-03-06T03:09:04.128Z,67.00
2023-03-06T03:11:30.695Z,65.75
2023-03-06T03:13:57.263Z,70.00
2023-03-06T03:16:23.917Z,66.25
2023-03-06T03:18:51.225Z,69.25
2023-03-06T03:21:18.609Z,63.50
2023-03-06T03:23:45.435Z,66.50
2023-03-06T03:26:15.083Z,68.50
2023-03-06T03:28:42.120Z,71.00
2023-03-06T03:31:10.590Z,67.50
2023-03-06T03:33:37.160Z,60.25
2023-03-06T03:36:05.922Z,68.50
2023-03-06T03:38:33.397Z,65.25
2023-03-06T03:41:03.721Z,65.00
2023-03-06T03:43:30.809Z,72.00
2023-03-06T03:45:57.347Z,67.25
2023-03-06T03:48:23.950Z,64.00
2023-03-06T03:50:50.526Z,65.00
2023-03-06T03:53:17.198Z,64.75
2023-03-06T03:55:43.824Z,67.50
2023-03-06T03:58:10.405Z,72.25
2023-03-06T04:00:36.991Z,69.75
2023-03-06T04:03:03.678Z,73.25
2023-03-06T04:05:30.241Z,72.75
2023-03-06T04:07:56.806Z,69.25
2023-03-06T04:10:23.409Z,70.75
2023-03-06T04:12:49.940Z,71.50
2023-03-06T04:15:16.606Z,66.75
2023-03-06T04:17:43.186Z,69.00
2023-03-06T04:20:10.535Z,71.75
2023-03-06T04:22:37.079Z,69.25
2023-03-06T04:25:03.940Z,74.00
2023-03-06T04:27:30.501Z,76.50
2023-03-06T04:29:57.064Z,72.50
2023-03-06T04:32:24.156Z,68.75
2023-03-06T04:34:51.037Z,69.00
2023-03-06T04:37:23.752Z,77.50
2023-03-06T04:39:50.823Z,68.25
2023-03-06T04:42:17.904Z,71.00
2023-03-06T04:44:44.586Z,67.25
2023-03-06T04:47:11.784Z,71.75
2023-03-06T04:49:38.440Z,64.00
2023-03-06T04:52:05.478Z,68.25
2023-03-06T04:54:32.371Z,62.25
2023-03-06T04:56:58.990Z,62.75
2023-03-06T04:59:25.605Z,60.75
2023-03-06T05:01:52.245Z,63.00
2023-03-06T05:04:18.849Z,60.25
2023-03-06T05:06:45.628Z,64.50
2023-03-06T05:09:12.216Z,60.00
2023-03-06T05:11:38.796Z,60.00
2023-03-06T05:14:05.378Z,59.00
2023-03-06T05:16:31.999Z,57.25
2023-03-06T05:18:58.710Z,63.75
2023-03-06T05:21:25.264Z,63.00
2023-03-06T05:23:51.800Z,61.25
2023-03-06T05:26:18.388Z,60.50
2023-03-06T05:28:45.023Z,64.50
2023-03-06T05:31:11.871Z,60.00
2023-03-06T05:33:38.565Z,56.50
2023-03-06T05:36:07.299Z,54.75
2023-03-06T05:38:33.900Z,57.25
2023-03-06T05:41:00.460Z,63.75
2023-03-06T05:43:27.125Z,58.25
2023-03-06T05:46:04.124Z,57.25
2023-03-06T05:48:34.896Z,59.75
2023-03-06T05:51:02.491Z,59.25
2023-03-06T05:53:29.807Z,67.75
2023-03-06T05:56:06.163Z,60.75
2023-03-06T05:58:33.510Z,59.25
2023-03-06T06:01:00.288Z,59.50
2023-03-06T06:03:27.568Z,54.00
2023-03-06T06:05:54.231Z,63.50
2023-03-06T06:08:21.102Z,61.00
2023-03-06T06:10:47.826Z,64.50
2023-03-06T06:13:14.507Z,60.00
2023-03-06T06:15:41.187Z,59.50
2023-03-06T06:18:07.786Z,58.50
2023-03-06T06:20:35.532Z,59.50
2023-03-06T06:23:02.166Z,60.75
2023-03-06T06:25:28.776Z,61.75
2023-03-06T06:27:56.656Z,68.25
2023-03-06T06:30:24.193Z,55.75
2023-03-06T06:32:50.855Z,61.75
2023-03-06T06:35:17.564Z,56.75
2023-03-06T06:37:44.145Z,63.25
2023-03-06T06:40:11.353Z,64.25
2023-03-06T06:42:40.162Z,66.75
2023-03-06T06:45:08.619Z,62.00
2023-03-06T06:47:37.092Z,63.75
2023-03-06T06:50:04.328Z,64.50
2023-03-06T06:52:30.948Z,62.75
2023-03-06T06:54:57.783Z,58.25
2023-03-06T06:57:24.312Z,57.25
2023-03-06T06:59:53.350Z,62.00
2023-03-06T07:02:20.722Z,62.25
2023-03-06T07:05:02.669Z,60.75
2023-03-06T07:07:30.480Z,58.50
2023-03-06T07:09:57.061Z,60.50
2023-03-06T07:12:23.704Z,65.00
2023-03-06T07:14:50.295Z,62.00
2023-03-06T07:17:16.935Z,57.25
2023-03-06T07:19:43.506Z,69.25
2023-03-06T07:22:10.330Z,57.75
2023-03-06T07:24:36.937Z,56.50
2023-03-06T07:27:03.741Z,56.00
2023-03-06T07:29:32.951Z,64.50
2023-03-06T07:31:59.587Z,56.25
2023-03-06T07:34:26.213Z,62.75
2023-03-06T07:36:52.764Z,59.75
2023-03-06T07:39:19.370Z,58.25
2023-03-06T07:41:46.022Z,53.00
2023-03-06T07:44:12.655Z,59.50
2023-03-06T07:46:39.339Z,60.75
2023-03-06T07:49:05.967Z,60.75
2023-03-06T07:51:32.540Z,57.25
2023-03-06T07:53:59.108Z,60.25
2023-03-06T07:56:25.759Z,57.25
2023-03-06T07:58:52.331Z,60.25
2023-03-06T08:01:21.655Z,60.75
2023-03-06T08:03:50.068Z,61.00
2023-03-06T08:06:25.589Z,65.25
2023-03-06T08:08:54.068Z,66.25
2023-03-06T08:11:23.129Z,58.00
2023-03-06T08:13:49.840Z,69.50
2023-03-06T08:16:17.632Z,66.50
2023-03-06T08:18:46.259Z,58.75
2023-03-06T08:21:16.386Z,59.25
2023-03-06T08:23:43.500Z,63.00
2023-03-06T08:26:16.521Z,58.50
2023-03-06T08:28:43.285Z,62.25
2023-03-06T08:31:12.576Z,52.25
2023-03-06T08:33:40.626Z,59.00
2023-03-06T08:36:07.516Z,57.75
2023-03-06T08:38:34.092Z,60.25
2023-03-06T08:41:00.726Z,56.00
2023-03-06T08:43:27.539Z,50.00
2023-03-06T08:45:55.180Z,52.00
2023-03-06T08:48:21.829Z,55.00
2023-03-06T08:50:48.525Z,51.00
2023-03-06T08:53:16.961Z,49.75
2023-03-06T08:55:43.950Z,50.25
2023-03-06T08:58:10.877Z,52.25
2023-03-06T09:00:37.872Z,48.75
2023-03-06T09:03:05.212Z,53.25
2023-03-06T09:05:32.250Z,49.75
2023-03-06T09:07:58.836Z,53.25
2023-03-06T09:10:26.527Z,51.00
2023-03-06T09:12:55.089Z,49.25
2023-03-06T09:15:22.896Z,50.25
2023-03-06T09:17:50.894Z,50.75
2023-03-06T09:20:18.626Z,46.25
2023-03-06T09:22:48.047Z,51.75
2023-03-06T09:25:17.639Z,52.50
2023-03-06T09:27:44.239Z,54.75
2023-03-06T09:30:11.642Z,46.00
2023-03-06T09:32:38.301Z,48.00
2023-03-06T09:35:05.275Z,39.50
2023-03-06T09:37:31.915Z,50.50
2023-03-06T09:39:58.513Z,50.25
2023-03-06T09:42:25.726Z,53.00
2023-03-06T09:44:58.981Z,45.75
2023-03-06T09:47:47.106Z,45.75
2023-03-06T09:50:22.038Z,49.75
2023-03-06T09:52:54.445Z,43.75
2023-03-06T09:55:27.170Z,48.50
2023-03-06T09:58:14.701Z,48.50
2023-03-06T10:01:04.834Z,49.25
2023-03-06T10:03:39.711Z,49.75
2023-03-06T10:06:19.585Z,41.25
2023-03-06T10:08:48.754Z,52.00
2023-03-06T10:11:22.318Z,46.75
2023-03-06T10:13:54.470Z,42.75
2023-03-06T10:16:32.727Z,46.25
2023-03-06T10:19:03.189Z,43.25
2023-03-06T10:21:46.282Z,48.25
2023-03-06T10:24:35.100Z,47.50
2023-03-06T10:27:15.125Z,49.00
2023-03-06T10:30:02.801Z,49.75
2023-03-06T10:32:59.254Z,51.00
2023-03-06T10:35:32.769Z,47.75
2023-03-06T10:38:02.162Z,39.75
2023-03-06T10:40:39.519Z,47.25
2023-03-06T10:43:12.250Z,48.25
2023-03-06T10:45:53.336Z,40.50
2023-03-06T10:48:27.006Z,38.75
2023-03-06T10:51:18.509Z,39.50
2023-03-06T10:54:13.802Z,39.00
2023-03-06T10:56:45.076Z,46.00
2023-03-06T10:59:25.247Z,37.00
2023-03-06T11:02:16.542Z,35.25
2023-03-06T11:04:51.418Z,40.75
2023-03-06T11:07:26.266Z,46.25
2023-03-06T11:09:58.603Z,36.00
2023-03-06T11:12:28.156Z,35.75
2023-03-06T11:15:06.725Z,48.50
2023-03-06T11:17:35.720Z,45.00
2023-03-06T11:20:14.562Z,40.00
2023-03-06T11:22:43.092Z,36.25
2023-03-06T11:25:16.774Z,36.75
2023-03-06T11:27:46.109Z,33.75
2023-03-06T11:30:22.540Z,30.50
2023-03-06T11:33:03.631Z,36.00
2023-03-06T11:35:45.510Z,40.25
2023-03-06T11:38:20.506Z,38.00
2023-03-06T11:40:53.989Z,40.75
2023-03-06T11:43:36.068Z,33.25
2023-03-06T11:46:15.368Z,38.00
2023-03-06T11:48:48.384Z,34.00
2023-03-06T11:51:21.325Z,40.50
2023-03-06T11:53:50.879Z,33.50
2023-03-06T11:56:20.318Z,39.00
2023-03-06T11:59:08.846Z,36.50
2023-03-06T12:02:19.730Z,42.50
2023-03-06T12:04:51.591Z,34.50
2023-03-06T12:07:26.992Z,37.75
2023-03-06T12:13:08.818Z,40.50
2023-03-06T12:15:47.346Z,43.50
2023-03-06T12:18:32.348Z,33.25
2023-03-06T12:21:31.110Z,40.75
2023-03-06T12:24:31.841Z,28.00
2023-03-06T12:27:17.281Z,32.00
2023-03-06T12:29:58.736Z,33.00
2023-03-06T12:32:49.660Z,40.00
2023-03-06T12:35:18.981Z,39.75
2023-03-06T12:37:51.239Z,36.75
2023-03-06T12:40:53.121Z,32.50
2023-03-06T12:43:52.362Z,39.00
2023-03-06T12:46:24.368Z,33.25
2023-03-06T12:49:22.965Z,34.25
2023-03-06T12:51:58.566Z,31.00
2023-03-06T12:54:29.190Z,33.75
2023-03-06T12:56:57.728Z,37.75
2023-03-06T12:59:59.736Z,35.25
2023-03-06T13:02:44.487Z,36.00
2023-03-06T13:05:48.560Z,34.25
2023-03-06T13:08:30.189Z,35.75
2023-03-06T13:11:19.540Z,30.50
2023-03-06T13:13:48.394Z,34.75
2023-03-06T13:16:31.841Z,34.00
2023-03-06T13:19:10.276Z,33.50
2023-03-06T13:21:43.429Z,28.75
2023-03-06T13:24:46.763Z,35.50
2023-03-06T13:27:47.049Z,38.75
2023-03-06T13:30:43.006Z,37.25
2023-03-06T13:33:38.742Z,35.75
2023-03-06T13:36:20.456Z,29.50
2023-03-06T13:38:49.746Z,31.75
2023-03-06T13:41:40.272Z,30.75
2023-03-06T13:44:25.103Z,32.25
2023-03-06T13:47:17.594Z,32.50
2023-03-06T13:49:46.971Z,31.50
2023-03-06T13:52:28.395Z,34.25
2023-03-06T13:55:10.790Z,38.25
2023-03-06T13:58:09.132Z,27.50
2023-03-06T14:00:41.702Z,31.00
2023-03-06T14:03:47.630Z,39.50
2023-03-06T14:06:38.960Z,35.75
2023-03-06T14:09:08.302Z,36.00
2023-03-06T14:11:36.582Z,32.25
2023-03-06T14:14:03.761Z,36.25
2023-03-06T14:16:49.456Z,31.50
2023-03-06T14:19:18.912Z,33.50
2023-03-06T14:21:45.478Z,37.00
2023-03-06T14:24:17.504Z,31.50
2023-03-06T14:26:48.675Z,29.25
2023-03-06T14:29:26.733Z,29.75
2023-03-06T14:31:58.712Z,31.50
2023-03-06T14:34:38.992Z,30.25
2023-03-06T14:37:07.808Z,33.25
2023-03-06T14:39:41.721Z,32.50
2023-03-06T14:42:22.277Z,28.00
2023-03-06T14:44:59.750Z,34.25
2023-03-06T14:47:29.466Z,33.50
2023-03-06T14:50:32.553Z,26.50
2023-03-06T14:53:05.264Z,31.25
2023-03-06T14:55:35.254Z,29.50
2023-03-06T14:58:11.752Z,32.75
2023-03-06T15:00:43.323Z,32.00
2023-03-06T15:03:20.391Z,35.25
2023-03-06T15:05:47.991Z,29.00
2023-03-06T15:08:24.100Z,32.75
2023-03-06T15:11:02.629Z,37.75
2023-03-06T15:13:31.791Z,46.00
2023-03-06T15:16:14.866Z,31.25
2023-03-06T15:18:59.747Z,31.50
2023-03-06T15:21:28.676Z,32.00
2023-03-06T15:23:57.489Z,37.00
2023-03-06T15:26:37.020Z,33.00
2023-03-06T15:29:10.615Z,27.00
2023-03-06T15:31:45.677Z,34.75
2023-03-06T15:34:12.358Z,29.75
2023-03-06T15:36:44.669Z,31.00
2023-03-06T15:39:35.163Z,36.00
2023-03-06T15:42:26.082Z,32.25
2023-03-06T15:44:54.811Z,38.50
2023-03-06T15:47:22.496Z,33.75
2023-03-06T15:49:53.359Z,31.75
2023-03-06T15:52:21.559Z,31.75
2023-03-06T15:54:48.281Z,35.75
2023-03-06T15:57:31.332Z,33.50
2023-03-06T15:59:59.717Z,40.50
2023-03-06T16:02:26.457Z,34.00
2023-03-06T16:04:53.586Z,26.50
2023-03-06T16:07:20.749Z,31.50
2023-03-06T16:09:47.453Z,31.75
2023-03-06T16:12:17.412Z,37.00
2023-03-06T16:14:45.451Z,35.75
2023-03-06T16:17:12.901Z,30.75
2023-03-06T16:19:39.818Z,33.00
2023-03-06T16:22:06.425Z,34.75
2023-03-06T16:24:33.148Z,34.75
2023-03-06T16:27:02.016Z,35.50
2023-03-06T16:29:29.659Z,32.00
2023-03-06T16:31:57.869Z,33.75
2023-03-06T16:34:25.301Z,39.00
2023-03-06T16:36:52.090Z,38.75
2023-03-06T16:39:21.379Z,30.25
2023-03-06T16:41:49.488Z,33.25
2023-03-06T16:44:16.466Z,31.75
2023-03-06T16:46:47.716Z,32.00
2023-03-06T16:49:19.477Z,39.50
2023-03-06T16:51:46.164Z,34.75
2023-03-06T16:54:13.238Z,32.50
2023-03-06T16:56:39.984Z,30.50
2023-03-06T16:59:06.963Z,35.50
2023-03-06T17:01:34.011Z,34.25
2023-03-06T17:04:00.792Z,33.75
2023-03-06T17:06:27.469Z,38.75
2023-03-06T17:08:54.473Z,37.50
2023-03-06T17:11:21.287Z,32.00
2023-03-06T17:13:48.258Z,39.25
2023-03-06T17:16:18.225Z,34.75
2023-03-06T17:18:45.897Z,32.50
2023-03-06T17:21:15.728Z,36.00
2023-03-06T17:23:42.918Z,42.25
2023-03-06T17:26:15.955Z,40.25
2023-03-06T17:28:42.904Z,35.00
2023-03-06T17:31:17.746Z,41.75
2023-03-06T17:33:45.210Z,37.50
2023-03-06T17:36:14.557Z,36.25
2023-03-06T17:38:42.035Z,37.00
2023-03-06T17:41:10.075Z,36.50
2023-03-06T17:43:37.805Z,38.50
2023-03-06T17:46:06.375Z,38.00
2023-03-06T17:48:33.724Z,39.00
2023-03-06T17:51:00.670Z,35.00
2023-03-06T17:53:27.964Z,31.00
2023-03-06T17:55:57.999Z,39.75
2023-03-06T17:58:25.476Z,38.25
2023-03-06T18:00:52.275Z,45.25
2023-03-06T18:03:19.079Z,42.75
2023-03-06T18:05:45.756Z,46.25
2023-03-06T18:08:12.506Z,48.25
2023-03-06T18:10:41.587Z,52.75
2023-03-06T18:13:09.597Z,48.50
2023-03-06T18:15:40.276Z,48.75
2023-03-06T18:18:07.339Z,54.00
2023-03-06T18:20:34.340Z,52.25
2023-03-06T18:23:03.676Z,49.50
2023-03-06T18:25:32.419Z,53.25
2023-03-06T18:27:59.198Z,50.75
2023-03-06T18:30:26.467Z,51.25
2023-03-06T18:32:53.663Z,53.00
2023-03-06T18:35:20.738Z,52.50
2023-03-06T18:37:47.360Z,46.25
2023-03-06T18:40:14.299Z,50.50
2023-03-06T18:42:40.887Z,53.25
2023-03-06T18:45:08.155Z,52.75
2023-03-06T18:47:34.784Z,49.75
2023-03-06T18:50:02.968Z,45.75
2023-03-06T18:52:29.567Z,48.75
2023-03-06T18:54:56.122Z,51.50
2023-03-06T18:57:22.728Z,48.25
2023-03-06T18:59:49.327Z,46.25
2023-03-06T19:02:15.905Z,52.75
2023-03-06T19:04:42.489Z,51.50
2023-03-06T19:07:09.153Z,49.50
2023-03-06T19:09:35.778Z,53.75
2023-03-06T19:12:03.963Z,50.00
2023-03-06T19:14:30.661Z,51.50
2023-03-06T19:16:57.319Z,52.75
2023-03-06T19:19:26.949Z,55.25
2023-03-06T19:21:53.852Z,49.00
2023-03-06T19:24:20.454Z,57.75
2023-03-06T19:26:47.105Z,61.25
2023-03-06T19:29:13.806Z,60.50
2023-03-06T19:31:41.308Z,68.00
2023-03-06T19:34:08.298Z,63.00
2023-03-06T19:36:34.944Z,62.75
2023-03-06T19:39:04.021Z,62.50
2023-03-06T19:41:30.666Z,61.25
2023-03-06T19:44:00.093Z,65.00
2023-03-06T19:46:27.399Z,60.50
2023-03-06T19:49:02.041Z,60.00
2023-03-06T19:51:28.939Z,62.00
2023-03-06T19:53:56.480Z,66.75
2023-03-06T19:56:29.082Z,72.50
2023-03-06T19:58:56.280Z,73.25
2023-03-06T20:01:25.050Z,74.25
2023-03-06T20:03:59.450Z,70.25
2023-03-06T20:06:28.889Z,69.50
2023-03-06T20:08:55.769Z,69.75
2023-03-06T20:11:29.890Z,65.25
2023-03-06T20:13:58.617Z,71.25
2023-03-06T20:16:28.007Z,65.50
2023-03-06T20:18:55.526Z,71.75
2023-03-06T20:21:23.348Z,70.00
2023-03-06T20:23:51.060Z,72.50
2023-03-06T20:26:19.045Z,75.00
2023-03-06T20:28:46.039Z,76.25
2023-03-06T20:31:20.856Z,67.25
2023-03-06T20:33:49.605Z,64.25
2023-03-06T20:36:25.465Z,57.75
2023-03-06T20:38:52.050Z,63.50
2023-03-06T20:41:21.653Z,70.00
2023-03-06T20:43:49.038Z,75.75
2023-03-06T20:46:16.149Z,75.50
2023-03-06T20:48:43.525Z,70.00
2023-03-06T20:51:21.712Z,74.50
2023-03-06T20:53:49.904Z,76.00
2023-03-06T20:56:19.292Z,68.25
2023-03-06T20:58:45.875Z,72.25
2023-03-06T21:01:20.757Z,76.00
2023-03-06T21:03:47.500Z,77.50
2023-03-06T21:06:14.232Z,77.00
2023-03-06T21:08:41.082Z,77.00
2023-03-06T21:11:07.884Z,84.25
2023-03-06T21:13:34.600Z,83.00
2023-03-06T21:16:07.424Z,80.25
2023-03-06T21:18:34.122Z,79.00
2023-03-06T21:21:08.006Z,70.75
2023-03-06T21:23:34.683Z,73.75
2023-03-06T21:26:01.384Z,74.75
2023-03-06T21:28:27.948Z,70.50
2023-03-06T21:30:54.714Z,72.75
2023-03-06T21:33:21.467Z,66.00
2023-03-06T21:35:48.102Z,70.00
2023-03-06T21:38:14.840Z,72.75
2023-03-06T21:40:41.556Z,70.50
2023-03-06T21:43:08.938Z,74.50
2023-03-06T21:45:35.571Z,72.25
2023-03-06T21:48:02.584Z,71.50
2023-03-06T21:50:29.540Z,77.25
2023-03-06T21:52:57.389Z,74.00
2023-03-06T21:55:23.935Z,77.50
2023-03-06T21:57:51.899Z,71.25
2023-03-06T22:00:19.584Z,73.50
2023-03-06T22:02:47.228Z,74.75
2023-03-06T22:05:14.065Z,74.00
2023-03-06T22:07:40.683Z,79.00
2023-03-06T22:10:09.488Z,80.25
2023-03-06T22:12:36.557Z,78.00
2023-03-06T22:15:03.256Z,73.50
2023-03-06T22:17:31.414Z,80.25
2023-03-06T22:19:58.459Z,76.00
2023-03-06T22:22:25.385Z,73.75
2023-03-06T22:24:51.935Z,78.75
